sensor_id;sensor_type;location;lat;lon;timestamp;P1;durP1;ratioP1;P2;durP2;ratioP2
1977;SDS011;989;53.016;8.346;2023-01-10T00:00:25;14.57;;;8.05;;
1977;SDS011;989;53.016;8.346;2023-01-10T00:02:58;22.25;;;9.07;;
1977;SDS011;989;53.016;8.346;2023-01-10T00:05:29;17.67;;;9.15;;
1977;SDS011;989;53.016;8.346;2023-01-10T00:07:55;15.48;;;7.30;;
1977;SDS011;989;53.016;8.346;2023-01-10T00:10:21;20.60;;;8.50;;
1977;SDS011;989;53.016;8.346;2023-01-10T00:12:46;13.30;;;7.10;;
1977;SDS011;989;53.016;8.346;2023-01-10T00:15:31;20.95;;;7.40;;
1977;SDS011;989;53.016;8.346;2023-01-10T00:17:58;13.93;;;7.90;;
1977;SDS011;989;53.016;8.346;2023-01-10T00:20:23;19.30;;;7.87;;
1977;SDS011;989;53.016;8.346;2023-01-10T00:22:49;15.63;;;7.45;;
1977;SDS011;989;53.016;8.346;2023-01-10T00:25:15;8.73;;;5.07;;
1977;SDS011;989;53.016;8.346;2023-01-10T00:27:45;12.30;;;5.25;;
1977;SDS011;989;53.016;8.346;2023-01-10T00:30:26;11.68;;;4.25;;
1977;SDS011;989;53.016;8.346;2023-01-10T00:32:52;19.42;;;6.03;;
1977;SDS011;989;53.016;8.346;2023-01-10T00:35:18;18.47;;;4.93;;
1977;SDS011;989;53.016;8.346;2023-01-10T00:37:44;18.30;;;5.87;;
1977;SDS011;989;53.016;8.346;2023-01-10T00:40:10;17.63;;;6.22;;
1977;SDS011;989;53.016;8.346;2023-01-10T00:42:36;14.15;;;6.22;;
1977;SDS011;989;53.016;8.346;2023-01-10T00:45:21;10.73;;;5.78;;
1977;SDS011;989;53.016;8.346;2023-01-10T00:47:49;15.55;;;6.80;;
1977;SDS011;989;53.016;8.346;2023-01-10T00:50:15;16.38;;;5.85;;
1977;SDS011;989;53.016;8.346;2023-01-10T00:52:42;9.57;;;5.15;;
1977;SDS011;989;53.016;8.346;2023-01-10T00:55:08;13.43;;;4.70;;
1977;SDS011;989;53.016;8.346;2023-01-10T00:57:34;11.95;;;4.90;;
1977;SDS011;989;53.016;8.346;2023-01-10T00:59:59;13.83;;;5.60;;
1977;SDS011;989;53.016;8.346;2023-01-10T01:02:25;14.70;;;5.83;;
1977;SDS011;989;53.016;8.346;2023-01-10T01:04:51;17.20;;;6.50;;
1977;SDS011;989;53.016;8.346;2023-01-10T01:07:16;25.40;;;5.60;;
1977;SDS011;989;53.016;8.346;2023-01-10T01:09:42;24.47;;;5.83;;
1977;SDS011;989;53.016;8.346;2023-01-10T01:12:26;18.70;;;4.90;;
1977;SDS011;989;53.016;8.346;2023-01-10T01:14:52;7.50;;;3.57;;
1977;SDS011;989;53.016;8.346;2023-01-10T01:17:18;14.07;;;4.90;;
1977;SDS011;989;53.016;8.346;2023-01-10T01:19:43;9.73;;;4.17;;
1977;SDS011;989;53.016;8.346;2023-01-10T01:22:09;20.63;;;4.80;;
1977;SDS011;989;53.016;8.346;2023-01-10T01:24:35;13.23;;;4.13;;
1977;SDS011;989;53.016;8.346;2023-01-10T01:27:00;10.00;;;3.60;;
1977;SDS011;989;53.016;8.346;2023-01-10T01:29:26;10.03;;;4.30;;
1977;SDS011;989;53.016;8.346;2023-01-10T01:31:52;9.30;;;1.90;;
1977;SDS011;989;53.016;8.346;2023-01-10T01:34:17;12.00;;;4.83;;
1977;SDS011;989;53.016;8.346;2023-01-10T01:36:43;19.23;;;4.87;;
1977;SDS011;989;53.016;8.346;2023-01-10T01:39:09;13.07;;;2.87;;
1977;SDS011;989;53.016;8.346;2023-01-10T01:41:35;9.40;;;3.42;;
1977;SDS011;989;53.016;8.346;2023-01-10T01:44:20;7.55;;;3.55;;
1977;SDS011;989;53.016;8.346;2023-01-10T01:46:50;9.30;;;3.80;;
1977;SDS011;989;53.016;8.346;2023-01-10T01:49:49;19.90;;;4.70;;
1977;SDS011;989;53.016;8.346;2023-01-10T01:52:21;8.30;;;2.60;;
1977;SDS011;989;53.016;8.346;2023-01-10T01:54:52;16.45;;;4.10;;
1977;SDS011;989;53.016;8.346;2023-01-10T01:57:23;13.98;;;4.13;;
1977;SDS011;989;53.016;8.346;2023-01-10T01:59:52;20.45;;;2.85;;
1977;SDS011;989;53.016;8.346;2023-01-10T02:02:27;22.13;;;3.42;;
1977;SDS011;989;53.016;8.346;2023-01-10T02:04:56;15.50;;;3.22;;
1977;SDS011;989;53.016;8.346;2023-01-10T02:07:28;15.70;;;3.45;;
1977;SDS011;989;53.016;8.346;2023-01-10T02:12:30;11.32;;;3.45;;
1977;SDS011;989;53.016;8.346;2023-01-10T02:14:57;17.75;;;4.60;;
1977;SDS011;989;53.016;8.346;2023-01-10T02:17:24;29.45;;;4.30;;
1977;SDS011;989;53.016;8.346;2023-01-10T02:25:35;9.30;;;4.35;;
1977;SDS011;989;53.016;8.346;2023-01-10T02:28:59;9.23;;;3.22;;
1977;SDS011;989;53.016;8.346;2023-01-10T02:31:59;14.18;;;3.65;;
1977;SDS011;989;53.016;8.346;2023-01-10T02:34:59;9.43;;;3.88;;
1977;SDS011;989;53.016;8.346;2023-01-10T02:38:34;12.73;;;2.40;;
1977;SDS011;989;53.016;8.346;2023-01-10T02:44:27;12.68;;;2.95;;
1977;SDS011;989;53.016;8.346;2023-01-10T02:47:01;15.70;;;4.15;;
1977;SDS011;989;53.016;8.346;2023-01-10T02:49:28;16.20;;;4.18;;
1977;SDS011;989;53.016;8.346;2023-01-10T02:51:54;21.03;;;3.60;;
1977;SDS011;989;53.016;8.346;2023-01-10T02:54:30;22.45;;;3.63;;
1977;SDS011;989;53.016;8.346;2023-01-10T03:02:36;18.65;;;4.35;;
1977;SDS011;989;53.016;8.346;2023-01-10T03:05:32;9.50;;;3.17;;
1977;SDS011;989;53.016;8.346;2023-01-10T03:08:26;7.82;;;3.05;;
1977;SDS011;989;53.016;8.346;2023-01-10T03:11:00;12.88;;;3.95;;
1977;SDS011;989;53.016;8.346;2023-01-10T03:13:45;5.32;;;2.20;;
1977;SDS011;989;53.016;8.346;2023-01-10T03:16:23;8.95;;;3.90;;
1977;SDS011;989;53.016;8.346;2023-01-10T03:19:00;18.45;;;5.95;;
1977;SDS011;989;53.016;8.346;2023-01-10T03:21:31;23.55;;;3.00;;
1977;SDS011;989;53.016;8.346;2023-01-10T03:24:02;15.93;;;4.30;;
1977;SDS011;989;53.016;8.346;2023-01-10T03:29:20;8.90;;;3.50;;
1977;SDS011;989;53.016;8.346;2023-01-10T03:31:56;14.60;;;5.05;;
1977;SDS011;989;53.016;8.346;2023-01-10T03:34:27;17.95;;;5.03;;
1977;SDS011;989;53.016;8.346;2023-01-10T03:45:57;12.95;;;3.90;;
1977;SDS011;989;53.016;8.346;2023-01-10T03:48:27;13.80;;;3.58;;
1977;SDS011;989;53.016;8.346;2023-01-10T03:50:58;18.38;;;4.45;;
1977;SDS011;989;53.016;8.346;2023-01-10T03:53:27;15.60;;;3.95;;
1977;SDS011;989;53.016;8.346;2023-01-10T03:55:53;16.50;;;3.97;;
1977;SDS011;989;53.016;8.346;2023-01-10T03:58:18;34.13;;;5.17;;
1977;SDS011;989;53.016;8.346;2023-01-10T04:00:46;14.82;;;3.08;;
1977;SDS011;989;53.016;8.346;2023-01-10T04:03:13;13.27;;;4.22;;
1977;SDS011;989;53.016;8.346;2023-01-10T04:05:40;15.30;;;3.50;;
1977;SDS011;989;53.016;8.346;2023-01-10T04:08:06;22.50;;;4.70;;
1977;SDS011;989;53.016;8.346;2023-01-10T04:10:31;21.87;;;4.03;;
1977;SDS011;989;53.016;8.346;2023-01-10T04:13:00;18.70;;;4.37;;
1977;SDS011;989;53.016;8.346;2023-01-10T04:15:28;16.75;;;4.60;;
1977;SDS011;989;53.016;8.346;2023-01-10T04:17:55;36.75;;;4.65;;
1977;SDS011;989;53.016;8.346;2023-01-10T04:20:21;8.13;;;2.90;;
1977;SDS011;989;53.016;8.346;2023-01-10T04:22:49;18.10;;;4.20;;
1977;SDS011;989;53.016;8.346;2023-01-10T04:25:15;15.15;;;4.15;;
1977;SDS011;989;53.016;8.346;2023-01-10T04:27:41;6.10;;;2.90;;
1977;SDS011;989;53.016;8.346;2023-01-10T04:30:07;31.07;;;5.73;;
1977;SDS011;989;53.016;8.346;2023-01-10T04:32:33;24.52;;;6.18;;
1977;SDS011;989;53.016;8.346;2023-01-10T04:34:59;13.80;;;4.33;;
1977;SDS011;989;53.016;8.346;2023-01-10T04:37:25;14.53;;;3.20;;
1977;SDS011;989;53.016;8.346;2023-01-10T04:39:51;12.53;;;4.40;;
1977;SDS011;989;53.016;8.346;2023-01-10T04:42:16;27.33;;;4.53;;
1977;SDS011;989;53.016;8.346;2023-01-10T04:44:42;12.20;;;4.60;;
1977;SDS011;989;53.016;8.346;2023-01-10T04:47:08;5.00;;;2.47;;
1977;SDS011;989;53.016;8.346;2023-01-10T04:49:33;20.97;;;4.50;;
1977;SDS011;989;53.016;8.346;2023-01-10T04:51:59;27.90;;;5.03;;
1977;SDS011;989;53.016;8.346;2023-01-10T04:54:25;16.83;;;3.70;;
1977;SDS011;989;53.016;8.346;2023-01-10T04:56:50;12.53;;;4.40;;
1977;SDS011;989;53.016;8.346;2023-01-10T04:59:16;24.93;;;5.53;;
1977;SDS011;989;53.016;8.346;2023-01-10T05:01:42;18.73;;;3.90;;
1977;SDS011;989;53.016;8.346;2023-01-10T05:04:08;16.63;;;2.77;;
1977;SDS011;989;53.016;8.346;2023-01-10T05:06:34;26.77;;;6.27;;
1977;SDS011;989;53.016;8.346;2023-01-10T05:09:01;17.13;;;4.80;;
1977;SDS011;989;53.016;8.346;2023-01-10T05:11:27;19.67;;;4.78;;
1977;SDS011;989;53.016;8.346;2023-01-10T05:13:53;10.83;;;3.87;;
1977;SDS011;989;53.016;8.346;2023-01-10T05:16:18;26.43;;;5.00;;
1977;SDS011;989;53.016;8.346;2023-01-10T05:18:44;17.20;;;4.60;;
1977;SDS011;989;53.016;8.346;2023-01-10T05:21:10;16.10;;;5.70;;
1977;SDS011;989;53.016;8.346;2023-01-10T05:23:37;37.65;;;6.22;;
1977;SDS011;989;53.016;8.346;2023-01-10T05:26:05;12.38;;;4.28;;
1977;SDS011;989;53.016;8.346;2023-01-10T05:28:40;14.63;;;6.22;;
1977;SDS011;989;53.016;8.346;2023-01-10T05:31:07;24.95;;;4.93;;
1977;SDS011;989;53.016;8.346;2023-01-10T05:33:34;16.35;;;4.90;;
1977;SDS011;989;53.016;8.346;2023-01-10T05:36:01;19.77;;;4.70;;
1977;SDS011;989;53.016;8.346;2023-01-10T05:38:28;16.10;;;4.13;;
1977;SDS011;989;53.016;8.346;2023-01-10T05:40:55;25.63;;;6.30;;
1977;SDS011;989;53.016;8.346;2023-01-10T05:43:23;25.70;;;6.78;;
1977;SDS011;989;53.016;8.346;2023-01-10T05:45:49;23.95;;;5.30;;
1977;SDS011;989;53.016;8.346;2023-01-10T05:48:16;16.25;;;6.40;;
1977;SDS011;989;53.016;8.346;2023-01-10T05:50:43;14.15;;;3.33;;
1977;SDS011;989;53.016;8.346;2023-01-10T05:53:09;25.15;;;4.97;;
1977;SDS011;989;53.016;8.346;2023-01-10T05:55:34;17.83;;;5.87;;
1977;SDS011;989;53.016;8.346;2023-01-10T05:58:00;36.00;;;6.00;;
1977;SDS011;989;53.016;8.346;2023-01-10T06:00:26;37.23;;;5.80;;
1977;SDS011;989;53.016;8.346;2023-01-10T06:02:55;34.78;;;5.97;;
1977;SDS011;989;53.016;8.346;2023-01-10T06:05:22;35.17;;;7.57;;
1977;SDS011;989;53.016;8.346;2023-01-10T06:07:48;27.17;;;6.13;;
1977;SDS011;989;53.016;8.346;2023-01-10T06:10:15;14.38;;;3.92;;
1977;SDS011;989;53.016;8.346;2023-01-10T06:12:41;24.05;;;5.15;;
1977;SDS011;989;53.016;8.346;2023-01-10T06:15:08;21.77;;;4.15;;
1977;SDS011;989;53.016;8.346;2023-01-10T06:17:34;18.25;;;4.55;;
1977;SDS011;989;53.016;8.346;2023-01-10T06:20:01;13.50;;;4.05;;
1977;SDS011;989;53.016;8.346;2023-01-10T06:22:26;20.23;;;4.53;;
1977;SDS011;989;53.016;8.346;2023-01-10T06:24:52;14.27;;;4.23;;
1977;SDS011;989;53.016;8.346;2023-01-10T06:27:19;15.45;;;3.92;;
1977;SDS011;989;53.016;8.346;2023-01-10T06:29:46;14.32;;;4.07;;
1977;SDS011;989;53.016;8.346;2023-01-10T06:32:11;21.30;;;4.73;;
1977;SDS011;989;53.016;8.346;2023-01-10T06:34:37;18.10;;;5.60;;
1977;SDS011;989;53.016;8.346;2023-01-10T06:37:03;19.80;;;4.77;;
1977;SDS011;989;53.016;8.346;2023-01-10T06:39:28;12.60;;;4.03;;
1977;SDS011;989;53.016;8.346;2023-01-10T06:41:54;11.60;;;4.33;;
1977;SDS011;989;53.016;8.346;2023-01-10T06:44:20;11.60;;;3.90;;
1977;SDS011;989;53.016;8.346;2023-01-10T06:46:46;22.77;;;5.30;;
1977;SDS011;989;53.016;8.346;2023-01-10T06:49:12;23.93;;;4.77;;
1977;SDS011;989;53.016;8.346;2023-01-10T06:51:37;21.17;;;4.90;;
1977;SDS011;989;53.016;8.346;2023-01-10T06:54:03;10.97;;;4.30;;
1977;SDS011;989;53.016;8.346;2023-01-10T06:56:29;26.90;;;5.27;;
1977;SDS011;989;53.016;8.346;2023-01-10T06:58:54;34.80;;;5.90;;
1977;SDS011;989;53.016;8.346;2023-01-10T07:01:20;26.10;;;4.73;;
1977;SDS011;989;53.016;8.346;2023-01-10T07:03:46;26.02;;;6.32;;
1977;SDS011;989;53.016;8.346;2023-01-10T07:06:13;16.67;;;5.53;;
1977;SDS011;989;53.016;8.346;2023-01-10T07:08:40;26.27;;;5.47;;
1977;SDS011;989;53.016;8.346;2023-01-10T07:11:09;12.07;;;5.13;;
1977;SDS011;989;53.016;8.346;2023-01-10T07:13:37;19.85;;;5.97;;
1977;SDS011;989;53.016;8.346;2023-01-10T07:16:04;15.73;;;4.90;;
1977;SDS011;989;53.016;8.346;2023-01-10T07:18:33;23.80;;;5.97;;
1977;SDS011;989;53.016;8.346;2023-01-10T07:21:00;37.83;;;7.45;;
1977;SDS011;989;53.016;8.346;2023-01-10T07:23:28;12.82;;;6.00;;
1977;SDS011;989;53.016;8.346;2023-01-10T07:26:01;25.75;;;6.38;;
1977;SDS011;989;53.016;8.346;2023-01-10T07:28:32;26.75;;;6.15;;
1977;SDS011;989;53.016;8.346;2023-01-10T07:31:02;29.50;;;5.63;;
1977;SDS011;989;53.016;8.346;2023-01-10T07:33:29;21.63;;;6.28;;
1977;SDS011;989;53.016;8.346;2023-01-10T07:35:56;10.25;;;4.95;;
1977;SDS011;989;53.016;8.346;2023-01-10T07:38:24;21.48;;;6.50;;
1977;SDS011;989;53.016;8.346;2023-01-10T07:40:50;22.75;;;7.45;;
1977;SDS011;989;53.016;8.346;2023-01-10T07:43:17;21.88;;;5.50;;
1977;SDS011;989;53.016;8.346;2023-01-10T07:45:43;11.00;;;5.40;;
1977;SDS011;989;53.016;8.346;2023-01-10T07:48:09;16.00;;;5.90;;
1977;SDS011;989;53.016;8.346;2023-01-10T07:50:35;28.63;;;5.67;;
1977;SDS011;989;53.016;8.346;2023-01-10T07:53:01;13.90;;;4.93;;
1977;SDS011;989;53.016;8.346;2023-01-10T07:55:29;24.70;;;6.93;;
1977;SDS011;989;53.016;8.346;2023-01-10T07:57:58;19.58;;;6.53;;
1977;SDS011;989;53.016;8.346;2023-01-10T08:00:25;27.95;;;6.40;;
1977;SDS011;989;53.016;8.346;2023-01-10T08:02:54;28.88;;;7.05;;
1977;SDS011;989;53.016;8.346;2023-01-10T08:05:21;31.27;;;6.40;;
1977;SDS011;989;53.016;8.346;2023-01-10T08:07:47;25.40;;;5.85;;
1977;SDS011;989;53.016;8.346;2023-01-10T08:10:13;20.03;;;6.93;;
1977;SDS011;989;53.016;8.346;2023-01-10T08:12:39;14.95;;;5.95;;
1977;SDS011;989;53.016;8.346;2023-01-10T08:15:05;17.73;;;6.30;;
1977;SDS011;989;53.016;8.346;2023-01-10T08:17:32;23.27;;;6.93;;
1977;SDS011;989;53.016;8.346;2023-01-10T08:19:59;19.45;;;6.70;;
1977;SDS011;989;53.016;8.346;2023-01-10T08:22:25;29.60;;;8.93;;
1977;SDS011;989;53.016;8.346;2023-01-10T08:24:51;34.43;;;6.57;;
1977;SDS011;989;53.016;8.346;2023-01-10T08:27:17;17.10;;;6.57;;
1977;SDS011;989;53.016;8.346;2023-01-10T08:29:43;27.27;;;6.47;;
1977;SDS011;989;53.016;8.346;2023-01-10T08:32:08;29.60;;;6.63;;
1977;SDS011;989;53.016;8.346;2023-01-10T08:34:35;20.65;;;5.88;;
1977;SDS011;989;53.016;8.346;2023-01-10T08:37:01;19.10;;;6.60;;
1977;SDS011;989;53.016;8.346;2023-01-10T08:39:27;24.17;;;6.47;;
1977;SDS011;989;53.016;8.346;2023-01-10T08:41:55;16.98;;;6.13;;
1977;SDS011;989;53.016;8.346;2023-01-10T08:44:21;27.25;;;7.90;;
1977;SDS011;989;53.016;8.346;2023-01-10T08:46:47;21.23;;;6.90;;
1977;SDS011;989;53.016;8.346;2023-01-10T08:49:13;20.90;;;5.83;;
1977;SDS011;989;53.016;8.346;2023-01-10T08:51:39;30.55;;;6.63;;
1977;SDS011;989;53.016;8.346;2023-01-10T08:54:05;33.20;;;7.13;;
1977;SDS011;989;53.016;8.346;2023-01-10T08:56:31;21.42;;;6.35;;
1977;SDS011;989;53.016;8.346;2023-01-10T08:58:56;24.33;;;8.30;;
1977;SDS011;989;53.016;8.346;2023-01-10T09:01:22;28.63;;;8.07;;
1977;SDS011;989;53.016;8.346;2023-01-10T09:03:48;28.67;;;7.70;;
1977;SDS011;989;53.016;8.346;2023-01-10T09:06:13;24.47;;;5.27;;
1977;SDS011;989;53.016;8.346;2023-01-10T09:08:39;32.83;;;7.73;;
1977;SDS011;989;53.016;8.346;2023-01-10T09:11:05;16.00;;;7.50;;
1977;SDS011;989;53.016;8.346;2023-01-10T09:13:31;21.08;;;5.63;;
1977;SDS011;989;53.016;8.346;2023-01-10T09:15:58;16.95;;;6.38;;
1977;SDS011;989;53.016;8.346;2023-01-10T09:18:24;23.00;;;7.22;;
1977;SDS011;989;53.016;8.346;2023-01-10T09:20:50;22.42;;;7.90;;
1977;SDS011;989;53.016;8.346;2023-01-10T09:23:17;24.60;;;5.88;;
1977;SDS011;989;53.016;8.346;2023-01-10T09:25:46;25.52;;;7.72;;
1977;SDS011;989;53.016;8.346;2023-01-10T09:28:14;36.45;;;7.00;;
1977;SDS011;989;53.016;8.346;2023-01-10T09:30:41;20.23;;;6.40;;
1977;SDS011;989;53.016;8.346;2023-01-10T09:33:08;37.97;;;9.85;;
1977;SDS011;989;53.016;8.346;2023-01-10T09:35:40;33.17;;;9.93;;
1977;SDS011;989;53.016;8.346;2023-01-10T09:38:10;18.50;;;8.85;;
1977;SDS011;989;53.016;8.346;2023-01-10T09:46:50;29.17;;;7.30;;
1977;SDS011;989;53.016;8.346;2023-01-10T09:49:37;21.77;;;9.07;;
1977;SDS011;989;53.016;8.346;2023-01-10T09:52:19;40.75;;;10.43;;
1977;SDS011;989;53.016;8.346;2023-01-10T09:54:51;19.90;;;7.47;;
1977;SDS011;989;53.016;8.346;2023-01-10T09:57:20;32.17;;;9.88;;
1977;SDS011;989;53.016;8.346;2023-01-10T09:59:47;30.38;;;8.98;;
1977;SDS011;989;53.016;8.346;2023-01-10T10:02:19;14.40;;;7.43;;
1977;SDS011;989;53.016;8.346;2023-01-10T10:05:10;22.45;;;9.68;;
1977;SDS011;989;53.016;8.346;2023-01-10T10:07:58;27.58;;;9.98;;
1977;SDS011;989;53.016;8.346;2023-01-10T10:16:17;29.30;;;11.38;;
1977;SDS011;989;53.016;8.346;2023-01-10T10:28:17;36.65;;;12.75;;
1977;SDS011;989;53.016;8.346;2023-01-10T10:36:20;36.53;;;13.10;;
1977;SDS011;989;53.016;8.346;2023-01-10T10:39:02;33.17;;;15.38;;
1977;SDS011;989;53.016;8.346;2023-01-10T10:41:34;36.35;;;12.30;;
1977;SDS011;989;53.016;8.346;2023-01-10T10:44:24;37.55;;;12.57;;
1977;SDS011;989;53.016;8.346;2023-01-10T10:46:57;35.35;;;7.05;;
1977;SDS011;989;53.016;8.346;2023-01-10T10:52:03;25.75;;;10.32;;
1977;SDS011;989;53.016;8.346;2023-01-10T10:54:44;32.47;;;10.90;;
1977;SDS011;989;53.016;8.346;2023-01-10T10:57:10;28.90;;;10.03;;
1977;SDS011;989;53.016;8.346;2023-01-10T10:59:36;12.80;;;6.80;;
1977;SDS011;989;53.016;8.346;2023-01-10T11:02:02;25.10;;;10.23;;
1977;SDS011;989;53.016;8.346;2023-01-10T11:04:51;29.83;;;10.20;;
1977;SDS011;989;53.016;8.346;2023-01-10T11:07:21;37.95;;;9.40;;
1977;SDS011;989;53.016;8.346;2023-01-10T11:09:51;31.55;;;9.15;;
1977;SDS011;989;53.016;8.346;2023-01-10T11:12:43;22.15;;;7.65;;
1977;SDS011;989;53.016;8.346;2023-01-10T11:15:22;36.50;;;8.43;;
1977;SDS011;989;53.016;8.346;2023-01-10T11:18:15;18.75;;;7.50;;
1977;SDS011;989;53.016;8.346;2023-01-10T11:21:11;28.45;;;7.07;;
1977;SDS011;989;53.016;8.346;2023-01-10T11:26:26;19.67;;;7.45;;
1977;SDS011;989;53.016;8.346;2023-01-10T11:29:03;26.23;;;7.47;;
1977;SDS011;989;53.016;8.346;2023-01-10T11:31:39;22.92;;;7.32;;
1977;SDS011;989;53.016;8.346;2023-01-10T11:34:07;25.15;;;7.40;;
1977;SDS011;989;53.016;8.346;2023-01-10T11:39:58;27.52;;;6.72;;
1977;SDS011;989;53.016;8.346;2023-01-10T11:42:44;20.55;;;8.35;;
1977;SDS011;989;53.016;8.346;2023-01-10T11:47:47;25.38;;;7.38;;
1977;SDS011;989;53.016;8.346;2023-01-10T11:50:18;20.55;;;6.00;;
1977;SDS011;989;53.016;8.346;2023-01-10T11:52:57;38.72;;;8.45;;
1977;SDS011;989;53.016;8.346;2023-01-10T11:55:27;24.37;;;7.90;;
1977;SDS011;989;53.016;8.346;2023-01-10T11:58:06;27.88;;;8.63;;
1977;SDS011;989;53.016;8.346;2023-01-10T12:00:40;28.20;;;8.20;;
1977;SDS011;989;53.016;8.346;2023-01-10T12:03:14;19.40;;;7.97;;
1977;SDS011;989;53.016;8.346;2023-01-10T12:05:52;26.65;;;8.23;;
1977;SDS011;989;53.016;8.346;2023-01-10T12:08:28;14.45;;;6.07;;
1977;SDS011;989;53.016;8.346;2023-01-10T12:11:02;17.23;;;6.63;;
1977;SDS011;989;53.016;8.346;2023-01-10T12:13:47;17.67;;;7.13;;
1977;SDS011;989;53.016;8.346;2023-01-10T12:16:16;27.38;;;8.02;;
1977;SDS011;989;53.016;8.346;2023-01-10T12:19:01;21.00;;;7.30;;
1977;SDS011;989;53.016;8.346;2023-01-10T12:24:21;28.70;;;8.52;;
1977;SDS011;989;53.016;8.346;2023-01-10T12:26:52;24.42;;;8.00;;
1977;SDS011;989;53.016;8.346;2023-01-10T12:29:25;38.65;;;8.45;;
1977;SDS011;989;53.016;8.346;2023-01-10T12:31:59;36.25;;;8.95;;
1977;SDS011;989;53.016;8.346;2023-01-10T12:34:37;34.13;;;8.30;;
1977;SDS011;989;53.016;8.346;2023-01-10T12:40:12;33.47;;;8.00;;
1977;SDS011;989;53.016;8.346;2023-01-10T12:42:53;24.83;;;9.85;;
1977;SDS011;989;53.016;8.346;2023-01-10T12:45:53;24.98;;;8.10;;
1977;SDS011;989;53.016;8.346;2023-01-10T12:51:21;47.28;;;8.45;;
1977;SDS011;989;53.016;8.346;2023-01-10T12:53:54;19.00;;;7.50;;
1977;SDS011;989;53.016;8.346;2023-01-10T12:56:26;30.05;;;7.63;;
1977;SDS011;989;53.016;8.346;2023-01-10T12:58:53;17.15;;;6.45;;
1977;SDS011;989;53.016;8.346;2023-01-10T13:01:23;31.33;;;9.30;;
1977;SDS011;989;53.016;8.346;2023-01-10T13:04:05;19.17;;;6.85;;
1977;SDS011;989;53.016;8.346;2023-01-10T13:06:40;18.65;;;7.53;;
1977;SDS011;989;53.016;8.346;2023-01-10T13:09:08;30.08;;;8.20;;
1977;SDS011;989;53.016;8.346;2023-01-10T13:11:53;21.10;;;6.40;;
1977;SDS011;989;53.016;8.346;2023-01-10T13:18:34;50.75;;;8.02;;
1977;SDS011;989;53.016;8.346;2023-01-10T13:21:02;37.28;;;7.50;;
1977;SDS011;989;53.016;8.346;2023-01-10T13:23:47;14.50;;;5.95;;
1977;SDS011;989;53.016;8.346;2023-01-10T13:26:16;16.90;;;5.05;;
1977;SDS011;989;53.016;8.346;2023-01-10T13:28:54;27.10;;;6.40;;
1977;SDS011;989;53.016;8.346;2023-01-10T13:31:30;27.10;;;7.68;;
1977;SDS011;989;53.016;8.346;2023-01-10T13:34:02;16.48;;;5.75;;
1977;SDS011;989;53.016;8.346;2023-01-10T13:36:35;31.98;;;6.38;;
1977;SDS011;989;53.016;8.346;2023-01-10T13:39:17;18.55;;;5.60;;
1977;SDS011;989;53.016;8.346;2023-01-10T14:06:13;29.23;;;6.80;;
1977;SDS011;989;53.016;8.346;2023-01-10T14:08:57;40.92;;;7.45;;
1977;SDS011;989;53.016;8.346;2023-01-10T14:11:31;26.38;;;6.82;;
1977;SDS011;989;53.016;8.346;2023-01-10T14:14:12;16.77;;;5.22;;
1977;SDS011;989;53.016;8.346;2023-01-10T14:16:45;18.02;;;5.97;;
1977;SDS011;989;53.016;8.346;2023-01-10T14:19:23;30.85;;;6.22;;
1977;SDS011;989;53.016;8.346;2023-01-10T14:21:54;19.48;;;4.05;;
1977;SDS011;989;53.016;8.346;2023-01-10T14:24:24;20.40;;;4.93;;
1977;SDS011;989;53.016;8.346;2023-01-10T14:26:55;15.15;;;5.75;;
1977;SDS011;989;53.016;8.346;2023-01-10T14:29:26;17.20;;;5.43;;
1977;SDS011;989;53.016;8.346;2023-01-10T14:31:58;16.67;;;5.97;;
1977;SDS011;989;53.016;8.346;2023-01-10T14:34:26;20.20;;;5.18;;
1977;SDS011;989;53.016;8.346;2023-01-10T14:36:59;23.15;;;5.50;;
1977;SDS011;989;53.016;8.346;2023-01-10T14:39:31;20.67;;;4.85;;
1977;SDS011;989;53.016;8.346;2023-01-10T14:41:58;19.83;;;4.70;;
1977;SDS011;989;53.016;8.346;2023-01-10T14:44:31;29.92;;;6.00;;
1977;SDS011;989;53.016;8.346;2023-01-10T14:47:21;17.38;;;5.75;;
1977;SDS011;989;53.016;8.346;2023-01-10T14:49:55;30.08;;;5.05;;
1977;SDS011;989;53.016;8.346;2023-01-10T14:52:40;15.60;;;4.65;;
1977;SDS011;989;53.016;8.346;2023-01-10T14:55:13;36.13;;;6.25;;
1977;SDS011;989;53.016;8.346;2023-01-10T14:57:51;24.80;;;6.72;;
1977;SDS011;989;53.016;8.346;2023-01-10T15:00:22;18.83;;;5.10;;
1977;SDS011;989;53.016;8.346;2023-01-10T15:02:54;27.20;;;6.15;;
1977;SDS011;989;53.016;8.346;2023-01-10T15:05:26;27.05;;;5.93;;
1977;SDS011;989;53.016;8.346;2023-01-10T15:07:55;37.17;;;7.43;;
1977;SDS011;989;53.016;8.346;2023-01-10T15:10:44;21.58;;;6.38;;
1977;SDS011;989;53.016;8.346;2023-01-10T15:13:12;22.52;;;7.05;;
1977;SDS011;989;53.016;8.346;2023-01-10T15:15:41;24.73;;;6.32;;
1977;SDS011;989;53.016;8.346;2023-01-10T15:18:55;38.80;;;6.18;;
1977;SDS011;989;53.016;8.346;2023-01-10T15:21:12;23.45;;;6.00;;
1977;SDS011;989;53.016;8.346;2023-01-10T15:23:43;20.48;;;6.45;;
1977;SDS011;989;53.016;8.346;2023-01-10T15:26:15;27.60;;;5.72;;
1977;SDS011;989;53.016;8.346;2023-01-10T15:28:50;22.75;;;6.20;;
1977;SDS011;989;53.016;8.346;2023-01-10T15:31:48;21.23;;;7.50;;
1977;SDS011;989;53.016;8.346;2023-01-10T15:34:18;30.33;;;8.60;;
1977;SDS011;989;53.016;8.346;2023-01-10T15:36:48;37.92;;;7.40;;
1977;SDS011;989;53.016;8.346;2023-01-10T15:39:23;15.57;;;6.60;;
1977;SDS011;989;53.016;8.346;2023-01-10T15:41:57;23.83;;;7.72;;
1977;SDS011;989;53.016;8.346;2023-01-10T15:50:18;26.73;;;6.28;;
1977;SDS011;989;53.016;8.346;2023-01-10T15:53:00;12.90;;;5.05;;
1977;SDS011;989;53.016;8.346;2023-01-10T16:00:47;17.60;;;6.13;;
1977;SDS011;989;53.016;8.346;2023-01-10T16:03:26;23.45;;;5.60;;
1977;SDS011;989;53.016;8.346;2023-01-10T16:06:00;28.85;;;6.15;;
1977;SDS011;989;53.016;8.346;2023-01-10T16:08:27;22.52;;;7.60;;
1977;SDS011;989;53.016;8.346;2023-01-10T16:11:00;19.02;;;6.82;;
1977;SDS011;989;53.016;8.346;2023-01-10T16:13:31;45.97;;;7.65;;
1977;SDS011;989;53.016;8.346;2023-01-10T16:15:59;17.08;;;6.43;;
1977;SDS011;989;53.016;8.346;2023-01-10T16:18:29;17.27;;;4.88;;
1977;SDS011;989;53.016;8.346;2023-01-10T16:20:59;39.35;;;5.53;;
1977;SDS011;989;53.016;8.346;2023-01-10T16:23:29;13.45;;;4.90;;
1977;SDS011;989;53.016;8.346;2023-01-10T16:25:59;18.42;;;5.28;;
1977;SDS011;989;53.016;8.346;2023-01-10T16:28:31;30.95;;;6.28;;
1977;SDS011;989;53.016;8.346;2023-01-10T16:31:00;26.42;;;6.90;;
1977;SDS011;989;53.016;8.346;2023-01-10T16:33:27;16.52;;;5.45;;
1977;SDS011;989;53.016;8.346;2023-01-10T16:35:57;24.73;;;5.43;;
1977;SDS011;989;53.016;8.346;2023-01-10T16:38:25;34.53;;;5.93;;
1977;SDS011;989;53.016;8.346;2023-01-10T16:40:53;23.90;;;4.15;;
1977;SDS011;989;53.016;8.346;2023-01-10T16:43:46;27.45;;;5.18;;
1977;SDS011;989;53.016;8.346;2023-01-10T16:46:13;32.40;;;5.03;;
1977;SDS011;989;53.016;8.346;2023-01-10T16:48:39;10.90;;;2.90;;
1977;SDS011;989;53.016;8.346;2023-01-10T16:51:12;21.53;;;5.07;;
1977;SDS011;989;53.016;8.346;2023-01-10T16:53:50;20.55;;;4.32;;
1977;SDS011;989;53.016;8.346;2023-01-10T16:56:17;21.77;;;4.50;;
1977;SDS011;989;53.016;8.346;2023-01-10T16:58:49;40.30;;;5.53;;
1977;SDS011;989;53.016;8.346;2023-01-10T17:01:20;40.17;;;5.75;;
1977;SDS011;989;53.016;8.346;2023-01-10T17:03:52;17.23;;;3.97;;
1977;SDS011;989;53.016;8.346;2023-01-10T17:06:20;21.15;;;4.75;;
1977;SDS011;989;53.016;8.346;2023-01-10T17:08:46;10.00;;;2.45;;
1977;SDS011;989;53.016;8.346;2023-01-10T17:11:18;20.70;;;5.57;;
1977;SDS011;989;53.016;8.346;2023-01-10T17:13:49;17.52;;;4.70;;
1977;SDS011;989;53.016;8.346;2023-01-10T17:16:14;18.73;;;4.33;;
1977;SDS011;989;53.016;8.346;2023-01-10T17:18:43;4.30;;;2.70;;
1977;SDS011;989;53.016;8.346;2023-01-10T17:21:13;27.02;;;3.35;;
1977;SDS011;989;53.016;8.346;2023-01-10T17:23:44;11.43;;;2.85;;
1977;SDS011;989;53.016;8.346;2023-01-10T17:26:11;14.30;;;4.28;;
1977;SDS011;989;53.016;8.346;2023-01-10T17:28:39;19.70;;;3.95;;
1977;SDS011;989;53.016;8.346;2023-01-10T17:31:05;16.90;;;3.35;;
1977;SDS011;989;53.016;8.346;2023-01-10T17:33:32;14.88;;;5.10;;